Portada
METAR-TAF:

METAR-TAF

Aeropuertos :

Oporto, Portugal

Aeropuerto de Oporto-Francisco Sá Carneiro

latitud: 41-14N, longitud: 008-41W, altitud: 69 m

Observación

El informe se hizo hace 44 minutos, a las 07:30 UTC
Viento 8 kt del sureste
Temperatura 12°C
Humedad 88%
Presión 1025 hPa
Visibilidad 10 km o más
Escasas nubes a una altura de 2700 ft

METAR: LPPR 280730Z 14008KT 9999 FEW027 12/10 Q1025

Hora: 09:14 (08:14 UTC)

Pronóstico

El informe se hizo hace 3 horas y 14 minutos, a las 05:00 UTC
Pronóstico válido del 28 a las 06 UTC al 29 a las 06 UTC
Viento 10 kt del sur
Visibilidad 10 km o más
Nubes dispersas a una altura de 2500 ft

TAF: LPPR 280500Z 2806/2906 18010KT 9999 SCT025

Observaciones y pronósticos meteorológicos de más de 4000 aeropuertos (mensajes METAR y TAF).

Los puntos amarillos y rojos representan las estaciones disponibles.

Ponga el ratón en el punto deseado para ver el nombre de la estación.

Haga clic para ver las observaciones y los pronósticos meteorológicos.

Para cambiar el mapa : haga clic en los botones verdes con una cruz de color negro para hacer un zoom, en el botón verde con un guión para alejar o en las flechas verdes para mapas adyacentes.


METAR-TAF: